Time;durP1;ratioP1;P1;durP2;ratioP2;P2;SDS_P1;SDS_P2;PMS_P1;PMS_P2;Temp;Humidity;BMP_temperature;BMP_pressure;BME280_temperature;BME280_humidity;BME280_pressure;Samples;Min_cycle;Max_cycle;Signal;HPM_P1;HPM_P2
2021/10/15 00:00:09;;;;;;;5.17;3.37;;;2.50;97.40;;;;;;2073270;28;20204;-67
2021/10/15 00:01:10;;;;;;;5.97;3.67;;;2.50;97.20;;;;;;2072861;28;20272;-65
2021/10/15 00:02:11;;;;;;;4.77;3.30;;;2.50;97.20;;;;;;2073315;28;20649;-66
2021/10/15 00:03:11;;;;;;;4.60;3.50;;;2.50;97.30;;;;;;2073215;28;20182;-65
2021/10/15 00:04:12;;;;;;;4.40;2.73;;;2.50;97.30;;;;;;2073214;28;20182;-66
2021/10/15 00:05:13;;;;;;;4.07;2.43;;;2.50;97.10;;;;;;2073060;28;20201;-66
2021/10/15 00:06:13;;;;;;;5.53;2.93;;;2.60;97.10;;;;;;2073079;28;20182;-66
2021/10/15 00:07:14;;;;;;;4.90;3.20;;;2.60;97.00;;;;;;2073390;28;20551;-65
2021/10/15 00:08:15;;;;;;;7.87;2.77;;;2.60;97.00;;;;;;2073183;28;20177;-67
2021/10/15 00:09:15;;;;;;;4.70;3.00;;;2.50;96.90;;;;;;2073133;28;20196;-66
2021/10/15 00:10:16;;;;;;;4.17;2.30;;;2.60;96.90;;;;;;2073215;28;20236;-66
2021/10/15 00:11:17;;;;;;;4.70;2.67;;;2.50;96.90;;;;;;2072901;28;20676;-67
2021/10/15 00:12:17;;;;;;;3.57;2.60;;;2.50;96.90;;;;;;2073083;28;20181;-65
2021/10/15 00:13:18;;;;;;;3.57;2.23;;;2.50;96.80;;;;;;2073052;28;20214;-65
2021/10/15 00:14:19;;;;;;;3.53;2.67;;;2.50;96.90;;;;;;2073211;28;20177;-66
2021/10/15 00:15:20;;;;;;;6.87;2.50;;;2.50;97.10;;;;;;2073056;28;20226;-65
2021/10/15 00:16:20;;;;;;;4.10;2.80;;;2.50;97.10;;;;;;2073114;28;20174;-66
2021/10/15 00:17:21;;;;;;;4.70;2.90;;;2.60;97.30;;;;;;2073052;28;20177;-66
2021/10/15 00:18:22;;;;;;;2.97;2.50;;;2.60;97.30;;;;;;2073363;28;20186;-65
2021/10/15 00:19:22;;;;;;;3.77;2.73;;;2.60;97.40;;;;;;2073047;28;20219;-66
2021/10/15 00:20:23;;;;;;;2.70;2.27;;;2.60;97.50;;;;;;2073281;28;20185;-66
2021/10/15 00:21:24;;;;;;;3.30;2.50;;;2.60;98.00;;;;;;2072886;28;20598;-66
2021/10/15 00:22:24;;;;;;;4.47;2.80;;;2.60;97.50;;;;;;2074234;28;20622;-66
2021/10/15 00:23:25;;;;;;;4.50;2.53;;;2.60;97.60;;;;;;2074643;28;20403;-66
2021/10/15 00:24:26;;;;;;;5.60;2.50;;;2.60;97.60;;;;;;2074796;28;20185;-65
2021/10/15 00:25:27;;;;;;;6.43;3.33;;;2.60;97.50;;;;;;2074753;28;20297;-66
2021/10/15 00:26:27;;;;;;;5.57;3.20;;;2.60;97.50;;;;;;2074308;28;20293;-66
2021/10/15 00:27:28;;;;;;;5.80;3.03;;;2.50;97.40;;;;;;2074103;28;20645;-66
2021/10/15 00:28:29;;;;;;;8.27;3.73;;;2.50;97.40;;;;;;2074722;28;20316;-65
2021/10/15 00:29:29;;;;;;;4.90;2.90;;;2.50;97.40;;;;;;2074712;28;20229;-66
2021/10/15 00:30:30;;;;;;;6.60;2.73;;;2.50;97.40;;;;;;2074577;28;20190;-64
2021/10/15 00:31:32;;;;;;;3.43;2.93;;;2.50;97.50;;;;;;2074486;28;20185;-65
2021/10/15 00:32:32;;;;;;;5.57;3.30;;;2.50;97.30;;;;;;2074665;28;20185;-66
2021/10/15 00:33:33;;;;;;;6.63;2.90;;;2.50;97.20;;;;;;2074827;28;20225;-66
2021/10/15 00:34:34;;;;;;;3.70;2.70;;;2.50;97.20;;;;;;2074614;28;20262;-65
2021/10/15 00:35:34;;;;;;;4.27;2.83;;;2.50;97.20;;;;;;2074629;28;20205;-65
2021/10/15 00:36:35;;;;;;;6.80;3.20;;;2.40;97.20;;;;;;2074719;28;20174;-66
2021/10/15 00:37:36;;;;;;;5.43;2.70;;;2.50;97.20;;;;;;2074627;28;20597;-65
2021/10/15 00:38:36;;;;;;;7.03;3.10;;;2.40;97.10;;;;;;2074526;28;20178;-65
2021/10/15 00:39:37;;;;;;;4.80;2.80;;;2.40;97.00;;;;;;2074734;28;20224;-64
2021/10/15 00:40:38;;;;;;;4.03;3.10;;;2.40;96.90;;;;;;2074493;28;20173;-65
2021/10/15 00:41:39;;;;;;;4.90;2.70;;;2.50;96.90;;;;;;2074416;28;20619;-65
2021/10/15 00:42:39;;;;;;;4.97;2.73;;;2.40;96.90;;;;;;2074630;28;20205;-64
2021/10/15 00:44:00;;;;;;;4.47;2.60;;;2.40;96.90;;;;;;2074455;28;20507;-65
2021/10/15 00:45:01;;;;;;;4.18;2.47;;;2.40;97.00;;;;;;2073918;28;20232;-64
2021/10/15 00:46:02;;;;;;;3.57;2.50;;;2.40;96.90;;;;;;2073970;28;20246;-64
2021/10/15 00:47:03;;;;;;;3.83;2.83;;;2.40;97.00;;;;;;2074593;28;20178;-65
2021/10/15 00:48:04;;;;;;;3.90;2.70;;;2.40;96.90;;;;;;2074580;28;20641;-64
2021/10/15 00:49:07;;;;;;;3.47;2.47;;;2.40;96.90;;;;;;2074424;28;20421;-65
2021/10/15 00:50:08;;;;;;;7.60;2.47;;;2.40;97.30;;;;;;2074489;28;20320;-64
2021/10/15 00:51:09;;;;;;;4.15;2.80;;;2.50;97.50;;;;;;2074283;28;20567;-65
2021/10/15 00:52:10;;;;;;;4.70;2.27;;;2.50;97.40;;;;;;2073981;28;20185;-64
2021/10/15 00:53:12;;;;;;;4.20;2.58;;;2.50;97.60;;;;;;2073888;28;20210;-65
2021/10/15 00:54:15;;;;;;;4.38;2.97;;;2.50;97.70;;;;;;2075629;28;20185;-65
2021/10/15 00:55:16;;;;;;;4.72;3.08;;;2.50;97.90;;;;;;2075057;28;20748;-65
2021/10/15 00:56:17;;;;;;;3.73;3.00;;;2.50;98.10;;;;;;2074528;28;20236;-65
2021/10/15 00:57:18;;;;;;;3.40;2.92;;;2.50;98.20;;;;;;2073831;28;20190;-64
2021/10/15 00:58:18;;;;;;;3.43;2.63;;;2.60;98.20;;;;;;2073803;28;20209;-64
2021/10/15 00:59:19;;;;;;;3.57;2.77;;;2.60;98.10;;;;;;2074223;28;20206;-65
2021/10/15 01:00:20;;;;;;;4.40;3.03;;;2.60;98.00;;;;;;2074443;28;20244;-68
2021/10/15 01:01:21;;;;;;;4.87;3.03;;;2.60;97.90;;;;;;2074122;28;20189;-66
2021/10/15 01:02:22;;;;;;;4.38;3.00;;;2.60;97.90;;;;;;2073941;28;20178;-67
2021/10/15 01:03:22;;;;;;;4.70;2.93;;;2.60;97.80;;;;;;2073948;28;20229;-67
2021/10/15 01:04:23;;;;;;;5.33;3.20;;;2.60;97.80;;;;;;2074474;28;20193;-66
2021/10/15 01:05:25;;;;;;;3.10;2.80;;;2.60;97.70;;;;;;2074232;28;20356;-66
2021/10/15 01:06:30;;;;;;;5.50;3.20;;;2.50;97.90;;;;;;2073886;28;20186;-66
2021/10/15 01:07:32;;;;;;;5.78;3.33;;;2.60;98.10;;;;;;2073746;28;20247;-66
2021/10/15 01:08:38;;;;;;;3.72;2.40;;;2.60;98.20;;;;;;2073713;28;20182;-66
2021/10/15 01:09:39;;;;;;;3.47;2.58;;;2.60;98.10;;;;;;2076302;28;20641;-66
2021/10/15 01:10:39;;;;;;;2.93;2.30;;;2.60;98.00;;;;;;2081937;28;20232;-66
2021/10/15 01:11:41;;;;;;;3.20;2.40;;;2.60;97.90;;;;;;2081579;28;20221;-66
2021/10/15 01:12:42;;;;;;;3.95;2.42;;;2.60;97.90;;;;;;2073937;28;20178;-66
2021/10/15 01:13:44;;;;;;;4.88;2.80;;;2.50;97.70;;;;;;2073791;28;20240;-66
2021/10/15 01:14:44;;;;;;;5.82;2.85;;;2.60;97.50;;;;;;2082146;28;20185;-67
2021/10/15 01:15:45;;;;;;;4.10;2.63;;;2.50;97.40;;;;;;2082374;28;20573;-66
2021/10/15 01:16:46;;;;;;;4.07;2.40;;;2.50;97.40;;;;;;2082526;28;20185;-66
2021/10/15 01:17:47;;;;;;;4.67;2.70;;;2.50;97.30;;;;;;2082486;28;20177;-66
2021/10/15 01:18:47;;;;;;;4.10;2.30;;;2.50;97.30;;;;;;2082459;28;20474;-65
2021/10/15 01:19:55;;;;;;;3.00;2.13;;;2.50;97.30;;;;;;2082260;28;20661;-65
2021/10/15 01:20:56;;;;;;;3.05;2.03;;;2.40;97.30;;;;;;2081614;28;20199;-66
2021/10/15 01:22:06;;;;;;;3.47;2.50;;;2.40;97.30;;;;;;2081454;28;20268;-66
2021/10/15 01:23:08;;;;;;;3.42;2.47;;;2.30;97.20;;;;;;2081798;28;20165;-66
2021/10/15 01:24:09;;;;;;;2.83;2.40;;;2.30;97.80;;;;;;2073647;28;20252;-66
2021/10/15 01:25:10;;;;;;;2.93;2.27;;;2.30;97.30;;;;;;2081769;28;20202;-66
2021/10/15 01:26:11;;;;;;;3.35;2.30;;;2.30;97.20;;;;;;2082247;28;20280;-66
2021/10/15 01:27:12;;;;;;;4.10;2.03;;;2.30;97.10;;;;;;2082398;28;20174;-66
2021/10/15 01:28:12;;;;;;;5.90;2.20;;;2.20;96.90;;;;;;2082382;28;20633;-66
2021/10/15 01:29:13;;;;;;;2.53;1.80;;;2.20;96.80;;;;;;2082490;28;20181;-66
2021/10/15 01:30:14;;;;;;;2.43;2.00;;;2.20;96.90;;;;;;2082284;28;20177;-66
2021/10/15 01:31:14;;;;;;;5.73;2.27;;;2.20;97.00;;;;;;2082174;28;20660;-65
2021/10/15 01:32:17;;;;;;;2.50;1.97;;;2.20;97.20;;;;;;2082250;28;20173;-66
2021/10/15 01:33:19;;;;;;;3.33;2.20;;;2.20;97.20;;;;;;2082038;28;20205;-66
2021/10/15 01:34:19;;;;;;;2.38;1.90;;;2.20;97.70;;;;;;2081587;28;20597;-66
2021/10/15 01:35:20;;;;;;;2.33;2.00;;;2.20;97.20;;;;;;2081738;28;20205;-65
2021/10/15 01:36:21;;;;;;;2.63;1.90;;;2.20;97.20;;;;;;2082259;28;20268;-66
2021/10/15 01:37:21;;;;;;;3.60;2.30;;;2.20;97.20;;;;;;2082162;28;20657;-67
2021/10/15 01:38:23;;;;;;;2.40;2.10;;;2.20;97.20;;;;;;2082347;28;20192;-66
2021/10/15 01:39:23;;;;;;;2.92;1.88;;;2.20;97.30;;;;;;2082304;28;20238;-67
2021/10/15 01:40:24;;;;;;;2.80;2.10;;;2.20;97.30;;;;;;2082043;28;20262;-66
2021/10/15 01:41:25;;;;;;;2.33;1.77;;;2.20;97.30;;;;;;2081988;28;20641;-66
2021/10/15 01:43:45;;;;;;;2.60;2.10;;;2.20;97.30;;;;;;2082380;28;20172;-66
2021/10/15 01:44:46;;;;;;;3.92;1.65;;;2.20;97.20;;;;;;2082246;28;20718;-67
2021/10/15 01:45:47;;;;;;;2.17;1.77;;;2.20;97.70;;;;;;2082368;28;20262;-65
2021/10/15 01:46:48;;;;;;;2.93;1.90;;;2.10;97.20;;;;;;2082202;28;20183;-66
2021/10/15 01:47:49;;;;;;;2.83;1.93;;;2.10;97.30;;;;;;2082320;28;20220;-66
2021/10/15 01:48:50;;;;;;;4.53;2.17;;;2.10;97.30;;;;;;2082239;28;20200;-66
2021/10/15 01:49:50;;;;;;;5.67;1.97;;;2.10;97.20;;;;;;2082251;28;20661;-66
2021/10/15 01:50:52;;;;;;;2.67;2.00;;;2.10;97.30;;;;;;2082093;28;20230;-66
2021/10/15 01:51:53;;;;;;;2.30;1.55;;;2.00;97.20;;;;;;2081355;28;20173;-66
2021/10/15 01:52:54;;;;;;;2.50;1.90;;;2.00;97.20;;;;;;2073302;28;20206;-67
2021/10/15 01:53:55;;;;;;;4.75;2.05;;;2.00;97.70;;;;;;2081580;28;20436;-66
2021/10/15 01:54:55;;;;;;;3.40;2.20;;;2.00;97.20;;;;;;2082073;28;20200;-66
2021/10/15 01:55:56;;;;;;;3.93;2.17;;;2.00;97.10;;;;;;2082312;28;20173;-66
2021/10/15 01:56:57;;;;;;;2.27;1.80;;;2.00;97.00;;;;;;2082125;28;20636;-65
2021/10/15 01:57:57;;;;;;;3.23;1.80;;;2.00;97.00;;;;;;2082022;28;20268;-66
2021/10/15 01:58:58;;;;;;;3.13;1.83;;;2.00;97.10;;;;;;2082033;28;20272;-66
2021/10/15 01:59:59;;;;;;;3.07;2.17;;;1.90;97.10;;;;;;2082025;28;20204;-65
2021/10/15 02:00:59;;;;;;;2.03;1.70;;;1.90;97.80;;;;;;2081846;28;20177;-67
2021/10/15 02:02:00;;;;;;;2.53;1.90;;;1.90;97.60;;;;;;2082036;28;20181;-65
2021/10/15 02:03:01;;;;;;;2.67;1.97;;;1.90;97.50;;;;;;2082087;28;20173;-66
2021/10/15 02:04:02;;;;;;;2.70;2.07;;;1.90;97.50;;;;;;2081370;28;20549;-66
2021/10/15 02:05:05;;;;;;;4.53;2.20;;;1.90;97.40;;;;;;2081389;28;20185;-65
2021/10/15 02:06:05;;;;;;;4.07;2.10;;;2.00;97.40;;;;;;2081303;28;20676;-66
2021/10/15 02:07:06;;;;;;;2.97;1.83;;;1.90;97.30;;;;;;2081608;28;20220;-65
2021/10/15 02:08:07;;;;;;;3.40;1.87;;;2.00;97.20;;;;;;2082025;28;20583;-65
2021/10/15 02:09:08;;;;;;;2.30;1.77;;;2.00;97.20;;;;;;2081950;28;20303;-65
2021/10/15 02:10:11;;;;;;;1.80;1.70;;;1.90;97.00;;;;;;2081968;28;20424;-65
2021/10/15 02:11:11;;;;;;;2.92;1.80;;;1.90;97.00;;;;;;2081187;28;20581;-65
2021/10/15 02:12:12;;;;;;;2.83;1.67;;;1.90;97.00;;;;;;2081428;28;20181;-65
2021/10/15 02:13:13;;;;;;;3.30;1.63;;;1.90;96.90;;;;;;2082097;28;20185;-65
2021/10/15 02:14:14;;;;;;;2.17;1.63;;;1.90;96.70;;;;;;2081971;28;20272;-64
2021/10/15 02:15:15;;;;;;;2.03;1.70;;;1.90;96.70;;;;;;2082054;28;20204;-65
2021/10/15 02:16:15;;;;;;;3.83;1.75;;;1.90;96.70;;;;;;2081927;28;20271;-64
2021/10/15 02:17:22;;;;;;;1.93;1.63;;;1.90;96.60;;;;;;2082046;28;20181;-65
2021/10/15 02:18:23;;;;;;;2.40;1.70;;;1.80;96.70;;;;;;2080346;28;20180;-66
2021/10/15 02:19:24;;;;;;;2.90;1.92;;;1.80;96.80;;;;;;2081836;28;20192;-66
2021/10/15 02:20:25;;;;;;;2.23;1.93;;;1.80;96.80;;;;;;2081693;28;20554;-65
2021/10/15 02:21:26;;;;;;;4.07;1.83;;;1.80;96.90;;;;;;2081021;28;20217;-65
2021/10/15 02:22:26;;;;;;;1.93;1.60;;;1.80;97.00;;;;;;2081303;28;20391;-66
2021/10/15 02:23:27;;;;;;;3.80;2.10;;;1.80;97.00;;;;;;2081909;28;20217;-65
2021/10/15 02:24:28;;;;;;;4.00;2.20;;;1.70;96.80;;;;;;2081803;28;20181;-65
2021/10/15 02:25:29;;;;;;;2.27;1.83;;;1.80;96.70;;;;;;2081804;28;20201;-65
2021/10/15 02:26:30;;;;;;;2.80;1.90;;;1.80;96.60;;;;;;2081774;28;20180;-65
2021/10/15 02:27:31;;;;;;;5.20;2.10;;;1.80;96.60;;;;;;2081941;28;20683;-65
2021/10/15 02:28:32;;;;;;;2.73;2.00;;;1.80;96.60;;;;;;2081831;28;20231;-64
2021/10/15 02:29:33;;;;;;;4.57;2.50;;;1.80;96.70;;;;;;2081851;28;20196;-66
2021/10/15 02:30:34;;;;;;;2.35;2.08;;;1.70;96.60;;;;;;2081947;28;20492;-65
2021/10/15 02:31:34;;;;;;;4.40;2.95;;;1.70;96.60;;;;;;2081574;28;20209;-65
2021/10/15 02:32:35;;;;;;;3.07;2.40;;;1.70;96.60;;;;;;2081987;28;20185;-65
2021/10/15 02:33:36;;;;;;;3.70;2.40;;;1.70;96.60;;;;;;2081808;28;20236;-66
2021/10/15 02:34:36;;;;;;;4.27;2.60;;;1.70;96.60;;;;;;2081760;28;20188;-67
2021/10/15 02:35:37;;;;;;;3.33;2.70;;;1.70;96.50;;;;;;2081615;28;20196;-65
2021/10/15 02:36:38;;;;;;;3.53;2.53;;;1.70;96.50;;;;;;2081865;28;20626;-64
2021/10/15 02:37:39;;;;;;;3.47;2.43;;;1.60;96.60;;;;;;2081829;28;20190;-65
2021/10/15 02:38:39;;;;;;;4.30;2.13;;;1.60;96.70;;;;;;2081753;28;20556;-65
2021/10/15 02:39:40;;;;;;;3.10;2.40;;;1.60;96.80;;;;;;2081894;28;20180;-65
2021/10/15 02:40:41;;;;;;;3.23;2.33;;;1.60;97.00;;;;;;2081747;28;20671;-65
2021/10/15 02:41:42;;;;;;;3.90;2.37;;;1.60;97.10;;;;;;2081399;28;20593;-64
2021/10/15 02:42:43;;;;;;;3.85;2.35;;;1.60;97.20;;;;;;2081213;28;20215;-65
2021/10/15 02:43:44;;;;;;;3.23;2.10;;;1.60;97.20;;;;;;2081163;28;20220;-65
2021/10/15 02:44:45;;;;;;;4.78;2.50;;;1.60;97.20;;;;;;2081008;28;20501;-65
2021/10/15 02:45:45;;;;;;;4.47;2.30;;;1.60;97.20;;;;;;2081609;28;20209;-65
2021/10/15 02:46:46;;;;;;;2.73;1.90;;;1.60;97.20;;;;;;2081614;28;20181;-64
2021/10/15 02:47:47;;;;;;;3.67;2.23;;;1.60;97.30;;;;;;2081827;28;20234;-65
2021/10/15 02:48:48;;;;;;;3.23;2.50;;;1.60;97.40;;;;;;2081662;28;20184;-65
2021/10/15 02:49:49;;;;;;;3.70;2.40;;;1.60;97.40;;;;;;2081654;28;20580;-66
2021/10/15 02:50:50;;;;;;;4.57;2.20;;;1.60;97.40;;;;;;2080865;28;20215;-64
2021/10/15 02:51:51;;;;;;;3.77;2.17;;;1.60;97.40;;;;;;2080772;28;20177;-66
2021/10/15 02:52:51;;;;;;;3.20;2.13;;;1.60;97.40;;;;;;2079915;28;20193;-65
2021/10/15 02:53:52;;;;;;;3.20;2.20;;;1.60;97.30;;;;;;2074685;28;20205;-65
2021/10/15 02:54:53;;;;;;;4.30;2.10;;;1.60;97.40;;;;;;2073379;28;20650;-66
2021/10/15 02:55:53;;;;;;;3.17;1.90;;;1.70;97.50;;;;;;2073569;28;20170;-65
2021/10/15 02:56:54;;;;;;;4.47;2.10;;;1.60;97.40;;;;;;2073566;28;20611;-65
2021/10/15 02:57:55;;;;;;;3.70;2.17;;;1.60;97.40;;;;;;2073367;28;20174;-66
2021/10/15 02:58:56;;;;;;;2.23;2.03;;;1.70;97.40;;;;;;2073456;28;20178;-65
2021/10/15 02:59:57;;;;;;;2.20;1.92;;;1.60;97.80;;;;;;2073415;28;20378;-64
2021/10/15 03:00:57;;;;;;;2.67;1.97;;;1.70;97.20;;;;;;2073438;28;20466;-66
2021/10/15 03:01:58;;;;;;;3.20;1.90;;;1.60;97.20;;;;;;2073225;28;20182;-65
2021/10/15 03:02:59;;;;;;;3.10;2.20;;;1.60;97.20;;;;;;2073392;28;20181;-66
2021/10/15 03:03:59;;;;;;;4.03;1.90;;;1.60;97.20;;;;;;2073252;28;20711;-67
2021/10/15 03:05:00;;;;;;;4.30;1.83;;;1.60;97.30;;;;;;2075714;28;20178;-65
2021/10/15 03:06:01;;;;;;;2.00;1.70;;;1.60;97.30;;;;;;2081469;28;20177;-65
2021/10/15 03:07:02;;;;;;;2.50;1.90;;;1.60;97.20;;;;;;2081555;28;20174;-65
2021/10/15 03:08:03;;;;;;;3.33;1.90;;;1.60;97.20;;;;;;2081509;28;20303;-64
2021/10/15 03:09:04;;;;;;;1.70;1.50;;;1.60;97.10;;;;;;2081529;28;20268;-65
2021/10/15 03:10:08;;;;;;;2.85;1.98;;;1.50;96.90;;;;;;2081736;28;20196;-64
2021/10/15 03:11:09;;;;;;;2.05;1.50;;;1.60;97.40;;;;;;2081381;28;20235;-65
2021/10/15 03:12:10;;;;;;;2.13;1.63;;;1.50;97.30;;;;;;2080851;28;20761;-65
2021/10/15 03:13:10;;;;;;;2.60;1.87;;;1.50;97.30;;;;;;2080736;28;20692;-65
2021/10/15 03:14:11;;;;;;;2.70;1.77;;;1.50;97.30;;;;;;2081616;28;20176;-64
2021/10/15 03:15:12;;;;;;;2.57;1.80;;;1.50;97.40;;;;;;2081481;28;20680;-65
2021/10/15 03:16:12;;;;;;;2.80;1.67;;;1.50;97.40;;;;;;2081538;28;20173;-65
2021/10/15 03:17:13;;;;;;;2.17;1.60;;;1.50;97.40;;;;;;2081535;28;20590;-65
2021/10/15 03:18:14;;;;;;;2.13;1.60;;;1.50;97.40;;;;;;2081482;28;20188;-65
2021/10/15 03:19:15;;;;;;;3.08;1.70;;;1.50;97.50;;;;;;2081436;28;20188;-65
2021/10/15 03:20:16;;;;;;;2.00;1.53;;;1.50;97.50;;;;;;2081432;28;20189;-65
2021/10/15 03:21:16;;;;;;;2.50;1.47;;;1.50;97.60;;;;;;2081274;28;20173;-65
2021/10/15 03:22:17;;;;;;;1.80;1.50;;;1.50;97.70;;;;;;2081467;28;20185;-65
2021/10/15 03:23:18;;;;;;;5.63;1.80;;;1.50;97.70;;;;;;2081543;28;20208;-65
2021/10/15 03:24:18;;;;;;;2.73;1.57;;;1.60;97.80;;;;;;2081424;28;20199;-65
2021/10/15 03:25:19;;;;;;;2.57;1.60;;;1.60;97.70;;;;;;2081400;28;20209;-65
2021/10/15 03:26:20;;;;;;;2.57;1.50;;;1.60;97.70;;;;;;2081419;28;20648;-66
2021/10/15 03:27:20;;;;;;;2.53;1.50;;;1.50;98.20;;;;;;2081466;28;20228;-65
2021/10/15 03:28:21;;;;;;;1.57;1.43;;;1.60;97.60;;;;;;2081392;28;20180;-65
2021/10/15 03:29:22;;;;;;;1.97;1.43;;;1.60;97.50;;;;;;2081403;28;20201;-65
2021/10/15 03:30:23;;;;;;;2.20;1.50;;;1.60;97.50;;;;;;2081383;28;20493;-65
2021/10/15 03:31:25;;;;;;;1.40;1.20;;;1.60;97.50;;;;;;2081139;28;20173;-64
2021/10/15 03:32:25;;;;;;;1.88;1.48;;;1.60;97.50;;;;;;2081467;28;20185;-64
2021/10/15 03:33:26;;;;;;;4.40;1.70;;;1.60;97.60;;;;;;2081323;28;20699;-64
2021/10/15 03:34:27;;;;;;;2.27;1.50;;;1.50;97.70;;;;;;2081225;28;20239;-65
2021/10/15 03:35:27;;;;;;;2.27;1.30;;;1.60;97.70;;;;;;2081210;28;20189;-64
2021/10/15 03:36:28;;;;;;;1.30;1.20;;;1.50;97.60;;;;;;2081510;28;20177;-65
2021/10/15 03:37:29;;;;;;;2.37;1.60;;;1.60;97.70;;;;;;2081408;28;20180;-64
2021/10/15 03:38:30;;;;;;;2.53;1.70;;;1.50;97.60;;;;;;2081401;28;20180;-64
2021/10/15 03:39:30;;;;;;;2.33;1.40;;;1.60;97.60;;;;;;2081349;28;20213;-65
2021/10/15 03:40:31;;;;;;;2.40;1.53;;;1.60;97.60;;;;;;2081321;28;20184;-65
2021/10/15 03:41:32;;;;;;;2.20;1.33;;;1.60;97.50;;;;;;2081113;28;20184;-64
2021/10/15 03:42:33;;;;;;;2.93;1.43;;;1.60;97.40;;;;;;2081429;28;20180;-65
2021/10/15 03:43:34;;;;;;;1.85;1.38;;;1.50;97.30;;;;;;2081268;28;20180;-64
2021/10/15 03:44:34;;;;;;;1.77;1.17;;;1.50;97.10;;;;;;2081382;28;20268;-65
2021/10/15 03:45:35;;;;;;;1.70;1.30;;;1.50;97.20;;;;;;2081171;28;20404;-65
2021/10/15 03:46:36;;;;;;;1.93;1.30;;;1.50;97.10;;;;;;2081289;28;20251;-65
2021/10/15 03:47:37;;;;;;;1.53;1.17;;;1.50;97.10;;;;;;2081217;28;20177;-65
2021/10/15 03:48:38;;;;;;;1.80;1.13;;;1.50;97.20;;;;;;2080814;28;20260;-66
2021/10/15 03:49:39;;;;;;;2.10;1.47;;;1.50;97.20;;;;;;2080650;28;20682;-65
2021/10/15 03:50:40;;;;;;;1.13;1.00;;;1.50;97.70;;;;;;2081192;28;20228;-64
2021/10/15 03:51:40;;;;;;;1.60;1.30;;;1.50;97.30;;;;;;2081003;28;20542;-66
2021/10/15 03:52:41;;;;;;;3.83;1.40;;;1.50;97.40;;;;;;2081315;28;20655;-65
2021/10/15 03:53:42;;;;;;;2.08;1.40;;;1.50;97.50;;;;;;2081291;28;20235;-65
2021/10/15 03:54:43;;;;;;;1.50;1.40;;;1.50;97.60;;;;;;2081434;28;20185;-64
2021/10/15 03:55:43;;;;;;;2.50;1.70;;;1.50;97.60;;;;;;2081420;28;20208;-65
2021/10/15 03:56:44;;;;;;;6.43;3.17;;;1.50;97.80;;;;;;2083105;28;20209;-66
2021/10/15 03:57:45;;;;;;;6.73;4.20;;;1.60;98.10;;;;;;2083026;28;20214;-64
2021/10/15 03:58:45;;;;;;;4.67;4.00;;;1.60;98.20;;;;;;2083079;28;20287;-64
2021/10/15 03:59:46;;;;;;;6.17;3.57;;;1.60;98.20;;;;;;2083124;28;20173;-66
2021/10/15 04:00:47;;;;;;;3.67;3.10;;;1.60;98.20;;;;;;2083051;28;20173;-66
2021/10/15 04:01:48;;;;;;;4.77;2.83;;;1.60;98.00;;;;;;2082551;28;20173;-65
2021/10/15 04:02:48;;;;;;;3.87;2.53;;;1.60;97.90;;;;;;2083082;28;20553;-66
2021/10/15 04:03:49;;;;;;;7.07;2.40;;;1.60;97.80;;;;;;2082913;28;20173;-65
2021/10/15 04:04:50;;;;;;;5.93;2.30;;;1.60;97.90;;;;;;2083008;28;20543;-65
2021/10/15 04:05:51;;;;;;;2.22;1.77;;;1.60;97.80;;;;;;2083009;28;20224;-64
2021/10/15 04:06:51;;;;;;;4.97;2.00;;;1.60;97.70;;;;;;2082969;28;20383;-66
2021/10/15 04:07:52;;;;;;;3.73;2.00;;;1.60;97.70;;;;;;2083018;28;20243;-64
2021/10/15 04:08:53;;;;;;;2.43;1.60;;;1.60;97.60;;;;;;2082950;28;20177;-65
2021/10/15 04:09:53;;;;;;;2.63;1.80;;;1.60;97.60;;;;;;2082977;28;20181;-65
2021/10/15 04:10:54;;;;;;;2.47;1.83;;;1.60;97.60;;;;;;2082913;28;20188;-65
2021/10/15 04:11:56;;;;;;;2.13;1.93;;;1.70;97.60;;;;;;2082715;28;20192;-65
2021/10/15 04:12:56;;;;;;;3.10;1.70;;;1.70;97.70;;;;;;2082819;28;20427;-64
2021/10/15 04:13:59;;;;;;;2.53;1.77;;;1.70;97.70;;;;;;2082888;28;20232;-66
2021/10/15 04:15:00;;;;;;;1.48;1.38;;;1.70;97.70;;;;;;2082204;28;20181;-66
2021/10/15 04:16:01;;;;;;;2.50;1.83;;;1.70;97.60;;;;;;2082536;28;20256;-66
2021/10/15 04:17:02;;;;;;;1.95;1.70;;;1.70;98.10;;;;;;2082881;28;20505;-66
2021/10/15 04:18:02;;;;;;;2.20;2.00;;;1.70;97.60;;;;;;2082855;28;20177;-65
2021/10/15 04:19:03;;;;;;;3.20;2.03;;;1.60;97.60;;;;;;2082743;28;20177;-66
2021/10/15 04:20:07;;;;;;;2.83;2.13;;;1.60;97.50;;;;;;2082874;28;20553;-66
2021/10/15 04:21:07;;;;;;;2.33;2.13;;;1.60;97.40;;;;;;2082674;28;20185;-66
2021/10/15 04:22:10;;;;;;;1.60;1.50;;;1.60;97.30;;;;;;2082887;28;20200;-65
2021/10/15 04:23:11;;;;;;;3.72;1.80;;;1.60;97.20;;;;;;2082147;28;20180;-66
2021/10/15 04:24:12;;;;;;;2.43;1.77;;;1.60;97.20;;;;;;2082350;28;20208;-64
2021/10/15 04:25:12;;;;;;;1.70;1.40;;;1.60;97.20;;;;;;2082825;28;20391;-64
2021/10/15 04:26:13;;;;;;;1.73;1.53;;;1.60;97.30;;;;;;2083049;28;20268;-65
2021/10/15 04:27:15;;;;;;;1.67;1.40;;;1.50;97.40;;;;;;2082865;28;20667;-65
2021/10/15 04:28:18;;;;;;;3.80;1.90;;;1.50;97.50;;;;;;2082728;28;20180;-65
2021/10/15 04:29:19;;;;;;;2.38;2.17;;;1.50;97.80;;;;;;2082775;28;20224;-66
2021/10/15 04:30:20;;;;;;;3.17;2.43;;;1.50;98.00;;;;;;2082887;28;20181;-65
2021/10/15 04:31:20;;;;;;;3.03;2.60;;;1.50;98.00;;;;;;2082589;28;20567;-64
2021/10/15 04:32:21;;;;;;;2.87;2.50;;;1.50;98.00;;;;;;2082756;28;20260;-65
2021/10/15 04:33:22;;;;;;;2.77;2.47;;;1.50;97.90;;;;;;2082667;28;20216;-66
2021/10/15 04:34:23;;;;;;;4.87;3.00;;;1.60;97.90;;;;;;2082182;28;20181;-66
2021/10/15 04:35:24;;;;;;;2.53;1.90;;;1.60;97.90;;;;;;2082119;28;20201;-65
2021/10/15 04:36:25;;;;;;;1.77;1.60;;;1.60;97.70;;;;;;2082878;28;20200;-64
2021/10/15 04:37:26;;;;;;;2.60;1.90;;;1.60;97.40;;;;;;2082868;28;20181;-65
2021/10/15 04:38:26;;;;;;;2.10;1.90;;;1.50;97.10;;;;;;2082724;28;20184;-65
2021/10/15 04:39:27;;;;;;;2.07;1.80;;;1.50;96.80;;;;;;2082560;28;20284;-66
2021/10/15 04:40:28;;;;;;;2.77;1.80;;;1.50;96.90;;;;;;2082813;28;20252;-65
2021/10/15 04:41:28;;;;;;;2.57;1.87;;;1.50;96.80;;;;;;2082444;28;20755;-66
2021/10/15 04:42:29;;;;;;;1.90;1.70;;;1.50;96.90;;;;;;2082800;28;20648;-64
2021/10/15 04:43:30;;;;;;;1.80;1.60;;;1.50;96.80;;;;;;2082672;28;20193;-65
2021/10/15 04:44:30;;;;;;;6.40;2.30;;;1.50;97.10;;;;;;2082733;28;20208;-65
2021/10/15 04:45:31;;;;;;;2.67;2.00;;;1.40;97.40;;;;;;2082612;28;20298;-66
2021/10/15 04:46:32;;;;;;;2.90;2.20;;;1.40;97.60;;;;;;2082622;28;20188;-66
2021/10/15 04:47:32;;;;;;;2.30;1.87;;;1.40;97.80;;;;;;2082677;28;20239;-65
2021/10/15 04:48:33;;;;;;;2.63;1.70;;;1.40;97.90;;;;;;2082768;28;20384;-65
2021/10/15 04:49:34;;;;;;;2.07;1.70;;;1.40;97.90;;;;;;2082589;28;20184;-66
2021/10/15 04:50:37;;;;;;;1.70;1.60;;;1.50;97.90;;;;;;2082678;28;20568;-66
2021/10/15 04:51:38;;;;;;;2.13;1.77;;;1.50;97.90;;;;;;2082441;28;20180;-65
2021/10/15 04:52:39;;;;;;;5.28;1.45;;;1.50;97.70;;;;;;2082604;28;20239;-66
2021/10/15 04:53:40;;;;;;;1.87;1.63;;;1.50;97.50;;;;;;2082546;28;20296;-65
2021/10/15 04:54:40;;;;;;;1.43;1.30;;;1.50;97.60;;;;;;2082587;28;20554;-66
2021/10/15 04:55:41;;;;;;;4.73;1.60;;;1.50;97.60;;;;;;2082560;28;20189;-65
2021/10/15 04:56:42;;;;;;;2.57;1.30;;;1.50;97.60;;;;;;2082733;28;20173;-66
2021/10/15 04:57:43;;;;;;;1.50;1.40;;;1.50;97.60;;;;;;2082513;28;20173;-64
2021/10/15 04:58:43;;;;;;;1.30;1.10;;;1.50;97.60;;;;;;2076844;28;20177;-66
2021/10/15 04:59:44;;;;;;;1.30;1.10;;;1.50;97.60;;;;;;2074393;28;20714;-66
2021/10/15 05:00:45;;;;;;;1.20;1.10;;;1.50;97.70;;;;;;2074261;28;20177;-66
2021/10/15 05:01:46;;;;;;;2.70;1.20;;;1.40;97.60;;;;;;2074214;28;20264;-65
2021/10/15 05:02:49;;;;;;;1.50;1.07;;;1.40;97.60;;;;;;2074284;28;20181;-65
2021/10/15 05:03:49;;;;;;;1.30;1.00;;;1.40;97.70;;;;;;2074374;28;20176;-65
2021/10/15 05:04:50;;;;;;;1.83;1.20;;;1.50;97.70;;;;;;2074186;28;20209;-65
2021/10/15 05:05:51;;;;;;;1.40;1.13;;;1.50;97.70;;;;;;2078088;28;20173;-65
2021/10/15 05:06:52;;;;;;;4.03;1.10;;;1.40;97.60;;;;;;2082420;28;20267;-65
2021/10/15 05:07:55;;;;;;;1.23;1.00;;;1.40;97.50;;;;;;2081850;28;20185;-65
2021/10/15 05:09:13;;;;;;;1.80;1.20;;;1.40;97.50;;;;;;2082473;28;20177;-66
2021/10/15 05:10:13;;;;;;;1.55;1.35;;;1.40;97.50;;;;;;2082528;28;20161;-65
2021/10/15 05:11:14;;;;;;;1.20;1.10;;;1.40;97.60;;;;;;2082191;28;20719;-65
2021/10/15 05:12:15;;;;;;;2.13;1.67;;;1.40;97.60;;;;;;2082491;28;20184;-65
2021/10/15 05:13:17;;;;;;;1.73;1.60;;;1.40;97.50;;;;;;2082369;28;20193;-66
2021/10/15 05:14:18;;;;;;;2.28;1.27;;;1.40;97.50;;;;;;2081914;28;20562;-65
2021/10/15 05:15:21;;;;;;;2.73;1.33;;;1.50;97.60;;;;;;2081780;28;20208;-64
2021/10/15 05:16:22;;;;;;;1.85;1.13;;;1.50;97.60;;;;;;2081739;28;20181;-66
2021/10/15 05:17:22;;;;;;;1.38;0.90;;;1.50;97.70;;;;;;2081770;28;20181;-66
2021/10/15 05:18:23;;;;;;;1.90;1.07;;;1.40;97.60;;;;;;2082521;28;20183;-65
2021/10/15 05:19:24;;;;;;;1.33;1.10;;;1.40;97.60;;;;;;2082441;28;20256;-66
2021/10/15 05:20:25;;;;;;;1.13;1.00;;;1.40;97.70;;;;;;2082505;28;20187;-65
2021/10/15 05:21:25;;;;;;;1.23;1.00;;;1.40;97.70;;;;;;2082101;28;20234;-65
2021/10/15 05:22:26;;;;;;;2.30;1.47;;;1.40;97.60;;;;;;2082371;28;20220;-66
2021/10/15 05:23:27;;;;;;;1.30;1.17;;;1.50;97.40;;;;;;2082323;28;20192;-66